This is the latest recevied weather packets stored in our database for station/object OE3BCB-14. If no packets are shown the sender has not sent any weather packets the latest 10 day(s).
| Time | Temp. | Humidity | Pressure | Rain* | Wind** | Luminosity | Snow |
|---|---|---|---|---|---|---|---|
| 1777273272 | 13.33° C | 46% | 1025.2 hPa | - | - | 25 W/m² | - |
| 1777272667 | 13.33° C | 46% | 1025.2 hPa | - | - | 26 W/m² | - |
| 1777272365 | 13.33° C | 46% | 1025.2 hPa | - | - | 27 W/m² | - |
| 1777271760 | 13.89° C | 46% | 1025.2 hPa | - | - | 55 W/m² | - |
| 1777271155 | 14.44° C | 48% | 1025.2 hPa | - | - | 146 W/m² | - |
| 1777270853 | 13.89° C | 48% | 1025.2 hPa | - | - | 139 W/m² | - |
| 1777270550 | 13.33° C | 47% | 1025.2 hPa | - | - | 128 W/m² | - |
| 1777269945 | 12.22° C | 48% | 1025.2 hPa | - | - | 132 W/m² | - |
| 1777269643 | 12.22° C | 48% | 1025.1 hPa | - | - | 126 W/m² | - |
| 1777269341 | 12.22° C | 49% | 1025.2 hPa | - | - | 122 W/m² | - |
| 1777269038 | 11.67° C | 49% | 1025.2 hPa | - | - | 119 W/m² | - |
| 1777268736 | 11.67° C | 49% | 1025.3 hPa | - | - | 115 W/m² | - |
| 1777268131 | 10.56° C | 49% | 1025.3 hPa | - | - | 101 W/m² | - |
| 1777267526 | 10° C | 49% | 1025.2 hPa | - | - | 28 W/m² | - |
| 1777267224 | 10° C | 49% | 1025.1 hPa | - | - | 27 W/m² | - |
| 1777266921 | 10° C | 50% | 1025.2 hPa | - | - | 49 W/m² | - |
| 1777266619 | 9.44° C | 50% | 1025.1 hPa | - | - | 68 W/m² | - |
| 1777266317 | 8.89° C | 50% | 1025.2 hPa | - | - | 62 W/m² | - |
| 1777266014 | 8.89° C | 50% | 1025.2 hPa | - | - | 55 W/m² | - |
| 1777265712 | 8.33° C | 50% | 1025.2 hPa | - | - | 48 W/m² | - |
| 1777265409 | 7.78° C | 50% | 1025.2 hPa | - | - | 41 W/m² | - |
| 1777265107 | 7.78° C | 50% | 1025.1 hPa | - | - | 35 W/m² | - |
| 1777264805 | 7.22° C | 50% | 1025.1 hPa | - | - | 29 W/m² | - |
| 1777264502 | 6.67° C | 50% | 1025.1 hPa | - | - | 24 W/m² | - |
| 1777264200 | 6.67° C | 50% | 1025.1 hPa | - | - | 16 W/m² | - |
* Rain since midnight (hover to see other rain measurements)
** Current wind speed in m/s (hover to see current wind gust speed)